Time;durP1;ratioP1;P1;durP2;ratioP2;P2;SDS_P1;SDS_P2;PMS_P1;PMS_P2;Temp;Humidity;BMP_temperature;BMP_pressure;BME280_temperature;BME280_humidity;BME280_pressure;Samples;Min_cycle;Max_cycle;Signal;HPM_P1;HPM_P2
2021/12/30 00:00:21;;;;;;;17.08;10.20;;;;;;;6.02;100.00;99869.16;5217107;28;20056;-80
2021/12/30 00:02:52;;;;;;;17.48;10.27;;;;;;;6.12;100.00;99876.63;5236080;28;20119;-80
2021/12/30 00:05:22;;;;;;;17.70;10.38;;;;;;;6.06;100.00;99873.38;5238486;28;20078;-81
2021/12/30 00:07:52;;;;;;;17.55;9.45;;;;;;;6.08;100.00;99875.03;5215946;28;20125;-79
2021/12/30 00:10:23;;;;;;;16.55;10.23;;;;;;;6.08;100.00;99867.25;5236603;28;20028;-80
2021/12/30 00:12:54;;;;;;;15.25;9.10;;;;;;;6.00;100.00;99873.53;5223922;28;20024;-79
2021/12/30 00:15:24;;;;;;;15.75;9.25;;;;;;;5.99;100.00;99877.03;5220651;28;20116;-79
2021/12/30 00:17:55;;;;;;;16.90;9.75;;;;;;;6.07;100.00;99885.47;5221183;28;20089;-79
2021/12/30 00:20:26;;;;;;;16.02;9.15;;;;;;;6.08;100.00;99890.59;5230832;28;20029;-79
2021/12/30 00:22:58;;;;;;;17.10;8.90;;;;;;;6.21;100.00;99889.34;5215623;28;20311;-79
2021/12/30 00:25:37;;;;;;;10.32;5.93;;;;;;;6.48;100.00;99879.91;5230749;28;20066;-80
2021/12/30 00:28:21;;;;;;;9.40;5.47;;;;;;;6.82;100.00;99877.97;5231784;28;20095;-79
2021/12/30 00:30:52;;;;;;;8.43;5.22;;;;;;;7.14;100.00;99885.56;5230059;28;20088;-79
2021/12/30 00:33:23;;;;;;;7.70;4.68;;;;;;;7.26;100.00;99893.81;5217217;28;20093;-79
2021/12/30 00:35:56;;;;;;;7.63;4.05;;;;;;;7.48;100.00;99887.84;5218878;28;20411;-80
2021/12/30 00:38:26;;;;;;;6.28;4.00;;;;;;;7.56;100.00;99901.41;5221955;28;20033;-79
2021/12/30 00:40:56;;;;;;;7.50;4.45;;;;;;;7.78;100.00;99905.00;5234750;28;20340;-80
2021/12/30 00:43:27;;;;;;;7.93;4.97;;;;;;;7.84;100.00;99920.38;5235326;28;20033;-80
2021/12/30 00:45:57;;;;;;;9.05;5.22;;;;;;;7.85;100.00;99918.63;5217045;28;20032;-80
2021/12/30 00:48:28;;;;;;;9.75;5.72;;;;;;;8.01;100.00;99925.00;5219792;28;20527;-81
2021/12/30 00:50:59;;;;;;;11.63;7.32;;;;;;;7.93;100.00;99947.81;5239588;28;20036;-80
2021/12/30 00:53:29;;;;;;;12.07;6.93;;;;;;;8.09;100.00;99939.44;5236446;28;20028;-80
2021/12/30 00:56:00;;;;;;;10.07;6.07;;;;;;;8.00;100.00;99942.34;5238827;28;20035;-80
2021/12/30 00:58:30;;;;;;;12.10;7.43;;;;;;;8.09;100.00;99944.63;5217288;28;20529;-80
2021/12/30 01:01:03;;;;;;;15.88;8.63;;;;;;;8.09;100.00;99939.44;5216487;28;20625;-80
2021/12/30 01:03:34;;;;;;;14.38;7.45;;;;;;;8.05;100.00;99948.22;5217742;28;20406;-80
2021/12/30 01:06:04;;;;;;;16.13;7.97;;;;;;;8.04;100.00;99946.53;5216344;28;20032;-80
2021/12/30 01:08:35;;;;;;;15.07;7.68;;;;;;;8.15;100.00;99948.75;5220025;28;20024;-81
2021/12/30 01:11:08;;;;;;;17.52;8.27;;;;;;;8.14;100.00;99958.31;5218669;28;20097;-80
2021/12/30 01:14:09;;;;;;;19.70;8.57;;;;;;;8.18;100.00;99954.72;5214643;28;20446;-79
2021/12/30 01:16:43;;;;;;;21.30;9.57;;;;;;;8.31;100.00;99945.59;5234669;28;20031;-81
2021/12/30 01:22:03;;;;;;;21.17;11.52;;;;;;;8.33;100.00;99967.19;5234594;28;20269;-80
2021/12/30 01:24:33;;;;;;;28.30;13.90;;;;;;;8.39;100.00;99972.16;5216922;28;20029;-80
2021/12/30 01:27:03;;;;;;;22.38;12.90;;;;;;;8.28;100.00;99984.75;5231740;28;20029;-79
2021/12/30 01:29:34;;;;;;;21.30;13.23;;;;;;;8.25;100.00;99982.22;5211720;28;20028;-79
2021/12/30 01:32:05;;;;;;;25.38;12.98;;;;;;;8.35;100.00;99978.41;5208880;28;20021;-79
2021/12/30 01:34:36;;;;;;;24.40;12.32;;;;;;;8.40;100.00;99980.84;5229511;28;20058;-79
2021/12/30 01:37:07;;;;;;;20.35;11.02;;;;;;;8.47;100.00;99988.38;5229227;28;20027;-81
2021/12/30 01:39:39;;;;;;;26.30;12.30;;;;;;;8.49;100.00;99994.38;5223503;28;20688;-81
2021/12/30 01:42:10;;;;;;;29.58;13.52;;;;;;;8.55;100.00;99993.31;5213860;28;20021;-81
2021/12/30 01:44:41;;;;;;;25.73;13.23;;;;;;;8.46;100.00;99997.09;5219473;28;20387;-80
2021/12/30 01:47:12;;;;;;;26.08;13.65;;;;;;;8.51;100.00;99999.50;5232491;28;20036;-80
2021/12/30 01:49:42;;;;;;;30.63;14.50;;;;;;;8.64;100.00;100005.97;5216142;28;20041;-80
2021/12/30 01:52:12;;;;;;;35.75;15.88;;;;;;;8.63;100.00;100005.16;5217011;28;20024;-79
2021/12/30 01:54:43;;;;;;;36.90;15.98;;;;;;;8.68;100.00;100005.81;5235784;28;20033;-80
2021/12/30 01:57:13;;;;;;;41.95;18.85;;;;;;;8.83;100.00;100012.19;5231849;28;20059;-80
2021/12/30 01:59:44;;;;;;;35.47;16.73;;;;;;;8.76;100.00;100015.94;5217409;28;20130;-81
2021/12/30 02:02:14;;;;;;;40.75;20.20;;;;;;;8.79;100.00;100019.31;5231161;28;20422;-80
2021/12/30 02:04:45;;;;;;;39.50;19.50;;;;;;;8.85;100.00;100026.88;5232161;28;20078;-80
2021/12/30 02:07:15;;;;;;;35.60;15.88;;;;;;;8.86;100.00;100028.56;5219522;28;20040;-79
2021/12/30 02:09:45;;;;;;;39.10;15.45;;;;;;;8.73;100.00;100032.53;5237636;28;20111;-81
2021/12/30 02:12:15;;;;;;;33.33;16.45;;;;;;;8.87;100.00;100045.06;5230955;28;20033;-80
2021/12/30 02:14:46;;;;;;;43.13;16.45;;;;;;;9.03;100.00;100035.78;5214633;28;20081;-79
2021/12/30 02:17:16;;;;;;;38.53;16.75;;;;;;;9.03;100.00;100047.03;5210593;28;20025;-79
2021/12/30 02:19:46;;;;;;;40.55;17.45;;;;;;;9.01;100.00;100042.78;5217877;28;20082;-79
2021/12/30 02:22:17;;;;;;;37.97;19.02;;;;;;;9.01;100.00;100038.44;5215328;28;20024;-79
2021/12/30 02:24:49;;;;;;;39.28;18.77;;;;;;;8.86;100.00;100033.78;5211768;28;20031;-79
2021/12/30 02:27:20;;;;;;;41.20;21.60;;;;;;;8.87;100.00;100034.66;5209883;28;20033;-80
2021/12/30 02:29:50;;;;;;;42.25;20.17;;;;;;;8.88;100.00;100041.56;5211479;28;20332;-79
2021/12/30 02:32:22;;;;;;;44.58;19.88;;;;;;;8.88;100.00;100055.41;5208573;28;20108;-79
2021/12/30 02:34:52;;;;;;;44.33;19.88;;;;;;;8.99;100.00;100065.44;5210259;28;20390;-80
2021/12/30 02:37:23;;;;;;;40.40;18.85;;;;;;;9.02;100.00;100047.06;5225867;28;20425;-79
2021/12/30 02:39:54;;;;;;;39.17;17.00;;;;;;;9.07;100.00;100048.59;5211251;28;20024;-80
2021/12/30 02:42:25;;;;;;;43.15;17.42;;;;;;;9.00;100.00;100068.00;5213731;28;20024;-80
2021/12/30 02:44:56;;;;;;;38.33;16.77;;;;;;;8.98;100.00;100075.03;5232605;28;20408;-79
2021/12/30 02:47:26;;;;;;;38.40;16.42;;;;;;;9.05;100.00;100066.06;5232146;28;20028;-79
2021/12/30 02:49:56;;;;;;;39.50;17.70;;;;;;;9.19;100.00;100066.41;5217210;28;20032;-80
2021/12/30 02:52:27;;;;;;;40.28;17.42;;;;;;;9.14;100.00;100081.38;5217833;28;20419;-80
2021/12/30 02:54:57;;;;;;;46.42;18.50;;;;;;;9.17;100.00;100091.69;5212258;28;20029;-80
2021/12/30 02:57:27;;;;;;;41.60;19.63;;;;;;;9.17;100.00;100091.69;5232947;28;20024;-80
2021/12/30 02:59:58;;;;;;;39.97;17.60;;;;;;;9.13;100.00;100089.25;5233345;28;20322;-80
2021/12/30 03:02:28;;;;;;;42.70;20.90;;;;;;;9.14;100.00;100082.22;5214295;28;20035;-80
2021/12/30 03:04:58;;;;;;;49.83;22.85;;;;;;;9.15;100.00;100089.13;5234126;28;20036;-79
2021/12/30 03:07:28;;;;;;;39.47;17.73;;;;;;;9.14;100.00;100081.38;5216060;28;20490;-79
2021/12/30 03:09:59;;;;;;;38.70;17.00;;;;;;;9.14;100.00;100097.84;5214672;28;20311;-80
2021/12/30 03:12:29;;;;;;;35.78;15.02;;;;;;;9.26;100.00;100101.75;5212992;28;20025;-80
2021/12/30 03:15:00;;;;;;;37.25;15.95;;;;;;;9.28;100.00;100086.94;5231760;28;20043;-80
2021/12/30 03:17:30;;;;;;;41.28;15.70;;;;;;;9.28;100.00;100099.97;5233202;28;20024;-79
2021/12/30 03:20:01;;;;;;;42.42;16.67;;;;;;;9.47;100.00;100095.75;5213928;28;20591;-78
2021/12/30 03:22:31;;;;;;;30.88;15.43;;;;;;;9.30;100.00;100105.97;5212295;28;20522;-80
2021/12/30 03:25:01;;;;;;;40.00;16.08;;;;;;;9.23;100.00;100118.38;5209655;28;20024;-79
2021/12/30 03:27:32;;;;;;;38.08;17.83;;;;;;;9.37;100.00;100130.88;5228670;28;20032;-79
2021/12/30 03:30:09;;;;;;;36.33;18.23;;;;;;;9.28;100.00;100136.47;5211480;28;20037;-80
2021/12/30 03:32:39;;;;;;;42.45;18.30;;;;;;;9.37;100.00;100134.34;5208940;28;20075;-79
2021/12/30 03:35:11;;;;;;;51.72;20.80;;;;;;;9.29;100.00;100136.38;5211829;28;20486;-79
2021/12/30 03:37:42;;;;;;;39.58;20.55;;;;;;;9.52;100.00;100132.91;5229324;28;20381;-79
2021/12/30 03:40:15;;;;;;;36.72;19.42;;;;;;;9.38;100.00;100138.66;5215051;28;20039;-79
2021/12/30 03:42:45;;;;;;;34.50;17.55;;;;;;;9.32;100.00;100138.03;5211016;28;20075;-79
2021/12/30 03:45:16;;;;;;;28.35;14.00;;;;;;;9.28;100.00;100152.09;5220147;28;20028;-79
2021/12/30 03:47:49;;;;;;;34.45;14.57;;;;;;;9.25;100.00;100158.28;5219013;28;20562;-80
2021/12/30 03:50:24;;;;;;;27.85;13.50;;;;;;;9.18;100.00;100174.19;5221906;28;20481;-80
2021/12/30 03:52:59;;;;;;;32.15;14.10;;;;;;;9.20;100.00;100188.03;5227894;28;20593;-80
2021/12/30 03:55:30;;;;;;;34.95;14.00;;;;;;;9.28;100.00;100212.06;5217986;28;20032;-80
2021/12/30 03:58:00;;;;;;;27.38;13.23;;;;;;;9.33;100.00;100218.81;5217740;28;20040;-78
2021/12/30 04:00:32;;;;;;;37.15;14.07;;;;;;;9.32;100.00;100222.31;5236320;28;20024;-80
2021/12/30 04:03:04;;;;;;;34.30;14.27;;;;;;;9.28;100.00;100214.69;5218445;28;20036;-80
2021/12/30 04:05:34;;;;;;;31.27;14.27;;;;;;;9.22;100.00;100215.75;5220158;28;20039;-79
2021/12/30 04:08:07;;;;;;;38.97;15.07;;;;;;;9.21;100.00;100214.06;5236850;28;20029;-80
2021/12/30 04:10:37;;;;;;;27.42;12.82;;;;;;;9.05;100.00;100227.66;5240038;28;20105;-80
2021/12/30 04:13:08;;;;;;;27.17;12.95;;;;;;;8.95;100.00;100226.31;5234634;28;20100;-80
2021/12/30 04:15:38;;;;;;;36.45;13.57;;;;;;;8.89;100.00;100226.50;5219725;28;20021;-79
2021/12/30 04:18:08;;;;;;;28.02;11.27;;;;;;;8.89;100.00;100234.31;5218204;28;20036;-80
2021/12/30 04:20:38;;;;;;;30.35;11.38;;;;;;;8.98;100.00;100228.78;5232437;28;20021;-79
2021/12/30 04:23:09;;;;;;;27.65;10.48;;;;;;;8.87;100.00;100238.72;5217479;28;20020;-79
2021/12/30 04:25:39;;;;;;;31.63;11.18;;;;;;;9.06;100.00;100246.78;5235035;28;20064;-79
2021/12/30 04:28:10;;;;;;;27.88;10.23;;;;;;;8.94;100.00;100242.84;5212844;28;20025;-80
2021/12/30 04:30:40;;;;;;;31.92;15.43;;;;;;;9.07;100.00;100244.09;5235541;28;20035;-79
2021/12/30 04:33:11;;;;;;;37.08;14.90;;;;;;;8.99;100.00;100243.53;5212755;28;20025;-81
2021/12/30 04:35:41;;;;;;;28.70;13.43;;;;;;;8.96;100.00;100243.63;5234284;28;20263;-79
2021/12/30 04:38:11;;;;;;;38.97;13.05;;;;;;;9.21;100.00;100244.47;5230113;28;20025;-78
2021/12/30 04:40:41;;;;;;;34.45;12.65;;;;;;;9.23;100.00;100245.25;5214728;28;20486;-79
2021/12/30 04:43:12;;;;;;;34.85;11.93;;;;;;;9.14;100.00;100237.78;5209672;28;20127;-79
2021/12/30 04:45:43;;;;;;;27.13;10.23;;;;;;;9.04;100.00;100240.78;5226715;28;20498;-78
2021/12/30 04:48:15;;;;;;;35.38;9.88;;;;;;;9.13;100.00;100241.28;5229219;28;20029;-79
2021/12/30 04:50:45;;;;;;;23.48;9.38;;;;;;;9.01;100.00;100226.06;5229080;28;20100;-80
2021/12/30 04:53:18;;;;;;;28.30;8.55;;;;;;;8.99;100.00;100219.19;5218110;28;20092;-79
2021/12/30 04:55:49;;;;;;;28.25;7.45;;;;;;;9.06;100.00;100216.31;5217610;28;20035;-79
2021/12/30 04:58:20;;;;;;;25.95;6.65;;;;;;;9.00;100.00;100213.94;5221222;28;20571;-79
2021/12/30 05:00:50;;;;;;;33.35;6.82;;;;;;;8.99;100.00;100214.84;5226680;28;20133;-80
2021/12/30 05:03:21;;;;;;;25.98;5.82;;;;;;;9.01;100.00;100200.00;5231138;28;20036;-80
2021/12/30 05:05:53;;;;;;;25.45;6.25;;;;;;;9.06;100.00;100202.47;5231180;28;20654;-80
2021/12/30 05:08:26;;;;;;;24.10;6.78;;;;;;;9.19;100.00;100199.34;5226189;28;20021;-80
2021/12/30 05:10:56;;;;;;;39.80;8.18;;;;;;;9.15;100.00;100198.59;5229638;28;20491;-79
2021/12/30 05:13:26;;;;;;;30.23;6.70;;;;;;;9.18;100.00;100202.88;5231382;28;20031;-79
2021/12/30 05:15:57;;;;;;;36.88;8.13;;;;;;;9.17;100.00;100209.00;5230268;28;20024;-79
2021/12/30 05:18:32;;;;;;;39.55;7.97;;;;;;;9.20;100.00;100224.53;5227608;28;20024;-80
2021/12/30 05:21:05;;;;;;;31.63;6.70;;;;;;;9.13;100.00;100220.44;5229566;28;20032;-79
2021/12/30 05:23:35;;;;;;;34.40;6.55;;;;;;;9.02;100.00;100212.13;5248593;28;20430;-80
2021/12/30 05:26:06;;;;;;;30.15;5.70;;;;;;;8.97;100.00;100213.19;5231746;28;20280;-80
2021/12/30 05:28:36;;;;;;;34.90;5.97;;;;;;;8.98;100.00;100209.69;5228797;28;20052;-80
2021/12/30 05:31:06;;;;;;;35.75;6.50;;;;;;;8.99;100.00;100208.78;5246561;28;20067;-80
2021/12/30 05:33:37;;;;;;;29.20;5.88;;;;;;;8.85;100.00;100214.47;5227263;28;20039;-79
2021/12/30 05:36:07;;;;;;;28.48;5.95;;;;;;;8.81;100.00;100212.03;5227128;28;20046;-78
2021/12/30 05:38:37;;;;;;;26.08;5.95;;;;;;;8.73;100.00;100198.41;5240419;28;20024;-79
2021/12/30 05:41:08;;;;;;;23.55;5.18;;;;;;;8.72;100.00;100207.13;5222977;28;20319;-78
2021/12/30 05:43:39;;;;;;;26.13;6.22;;;;;;;8.67;100.00;100209.91;5242314;28;20107;-79
2021/12/30 05:46:09;;;;;;;22.92;5.60;;;;;;;8.62;100.00;100196.19;5243513;28;20054;-79
2021/12/30 05:48:39;;;;;;;32.25;9.65;;;;;;;8.60;100.00;100195.38;5220597;28;20199;-79
2021/12/30 05:51:10;;;;;;;23.98;7.53;;;;;;;8.59;100.00;100193.66;5220871;28;20025;-79
2021/12/30 05:53:40;;;;;;;26.13;5.70;;;;;;;8.64;100.00;100204.78;5226065;28;20088;-80
2021/12/30 05:56:10;;;;;;;37.03;6.15;;;;;;;8.69;100.00;100192.44;5247972;28;20032;-79
2021/12/30 05:58:41;;;;;;;21.90;5.03;;;;;;;8.71;100.00;100193.25;5228729;28;20032;-78
2021/12/30 06:01:11;;;;;;;35.38;6.07;;;;;;;8.69;100.00;100189.84;5230728;28;20361;-79
2021/12/30 06:03:42;;;;;;;26.27;5.38;;;;;;;8.82;100.00;100193.75;5226694;28;20538;-79
2021/12/30 06:06:12;;;;;;;31.70;6.18;;;;;;;8.83;100.00;100199.78;5225646;28;20170;-79
2021/12/30 06:08:42;;;;;;;24.40;5.78;;;;;;;8.78;100.00;100191.28;5240987;28;20035;-79
2021/12/30 06:11:12;;;;;;;30.65;5.63;;;;;;;8.74;100.00;100182.72;5228032;28;20052;-79
2021/12/30 06:13:43;;;;;;;27.17;5.47;;;;;;;8.74;100.00;100179.28;5227820;28;20035;-79
2021/12/30 06:16:13;;;;;;;36.42;6.18;;;;;;;8.70;100.00;100188.94;5229769;28;20021;-80
2021/12/30 06:18:43;;;;;;;15.65;4.65;;;;;;;8.63;100.00;100200.50;5227973;28;20409;-80
2021/12/30 06:21:14;;;;;;;22.40;4.95;;;;;;;8.66;100.00;100213.41;5226129;28;20035;-80
2021/12/30 06:23:44;;;;;;;23.17;5.20;;;;;;;8.63;100.00;100223.06;5227162;28;20484;-78
2021/12/30 06:26:14;;;;;;;22.20;4.45;;;;;;;8.59;100.00;100226.69;5227720;28;20505;-80
2021/12/30 06:28:45;;;;;;;30.05;7.82;;;;;;;8.57;100.00;100229.31;5226952;28;20090;-79
2021/12/30 06:31:15;;;;;;;27.20;8.35;;;;;;;8.57;100.00;100229.31;5247595;28;20032;-79
2021/12/30 06:33:45;;;;;;;31.77;8.50;;;;;;;8.58;100.00;100231.03;5214985;28;20084;-80
2021/12/30 06:36:17;;;;;;;25.48;6.25;;;;;;;8.62;100.00;100235.25;5217470;28;20838;-80
2021/12/30 06:38:49;;;;;;;35.80;6.35;;;;;;;8.68;100.00;100241.97;5218282;28;20371;-82
2021/12/30 06:41:19;;;;;;;31.55;6.57;;;;;;;8.71;100.00;100242.75;5213923;28;20447;-80
2021/12/30 06:43:49;;;;;;;29.50;7.75;;;;;;;8.88;100.00;100250.84;5206878;28;20032;-81
2021/12/30 06:46:21;;;;;;;26.85;8.43;;;;;;;8.89;100.00;100242.13;5227931;28;20215;-80
2021/12/30 06:48:52;;;;;;;26.05;8.93;;;;;;;8.85;100.00;100237.94;5211723;28;20088;-81
2021/12/30 06:51:24;;;;;;;35.22;10.00;;;;;;;8.90;100.00;100222.97;5228182;28;20038;-81
2021/12/30 06:53:55;;;;;;;29.85;9.85;;;;;;;8.92;100.00;100236.81;5219200;28;20107;-80
2021/12/30 06:56:26;;;;;;;35.42;9.73;;;;;;;8.89;100.00;100243.91;5216663;28;20111;-82
2021/12/30 06:58:56;;;;;;;38.38;10.95;;;;;;;8.93;100.00;100222.88;5217803;28;20101;-81
2021/12/30 07:01:29;;;;;;;34.45;10.38;;;;;;;8.99;100.00;100229.63;5217709;28;20085;-81
2021/12/30 07:03:59;;;;;;;40.47;12.00;;;;;;;9.02;100.00;100238.19;5218305;28;20033;-82
2021/12/30 07:06:30;;;;;;;36.17;12.52;;;;;;;9.02;100.00;100234.72;5235728;28;20028;-82
2021/12/30 07:09:00;;;;;;;33.30;11.18;;;;;;;9.05;100.00;100217.22;5223871;28;20054;-82
2021/12/30 07:11:30;;;;;;;31.17;11.73;;;;;;;9.04;100.00;100220.75;5220504;28;20059;-82
2021/12/30 07:14:00;;;;;;;35.65;12.68;;;;;;;9.10;100.00;100223.13;5219191;28;20043;-82
2021/12/30 07:16:31;;;;;;;35.03;12.43;;;;;;;9.15;100.00;100229.06;5234102;28;20028;-81
2021/12/30 07:19:01;;;;;;;33.17;12.85;;;;;;;9.23;100.00;100224.41;5213114;28;20040;-82
2021/12/30 07:21:31;;;;;;;37.15;12.85;;;;;;;9.26;100.00;100232.13;5234136;28;20033;-81
2021/12/30 07:24:02;;;;;;;44.10;13.55;;;;;;;9.36;100.00;100230.88;5234913;28;20029;-82
2021/12/30 07:26:33;;;;;;;34.58;13.15;;;;;;;9.43;100.00;100234.97;5223408;28;20510;-82
2021/12/30 07:29:04;;;;;;;35.47;13.10;;;;;;;9.45;100.00;100246.22;5216689;28;20021;-81
2021/12/30 07:31:34;;;;;;;39.17;13.93;;;;;;;9.46;100.00;100255.75;5237383;28;20111;-82
2021/12/30 07:34:05;;;;;;;33.45;12.82;;;;;;;9.47;100.00;100257.44;5234856;28;20128;-81
2021/12/30 07:36:35;;;;;;;33.08;13.23;;;;;;;9.50;100.00;100252.13;5219333;28;20081;-81
2021/12/30 07:39:05;;;;;;;32.17;12.88;;;;;;;9.52;100.00;100261.56;5222318;28;20024;-80
2021/12/30 07:41:36;;;;;;;33.47;13.23;;;;;;;9.53;100.00;100262.44;5213983;28;20025;-81
2021/12/30 07:44:06;;;;;;;30.95;13.23;;;;;;;9.62;100.00;100269.94;5204925;28;20116;-82
2021/12/30 07:46:37;;;;;;;30.20;12.55;;;;;;;9.58;100.00;100270.94;5203795;28;20088;-82
2021/12/30 07:49:07;;;;;;;36.08;13.80;;;;;;;9.62;100.00;100288.19;5212903;28;20020;-81
2021/12/30 07:51:37;;;;;;;36.40;13.68;;;;;;;9.60;100.00;100284.75;5224484;28;20051;-81
2021/12/30 07:54:07;;;;;;;33.95;14.48;;;;;;;9.61;100.00;100282.13;5215098;28;20434;-80
2021/12/30 07:56:38;;;;;;;33.13;13.38;;;;;;;9.57;100.00;100277.06;5211169;28;20033;-81
2021/12/30 07:59:08;;;;;;;33.85;12.65;;;;;;;9.68;100.00;100278.34;5231582;28;20028;-80
2021/12/30 08:01:38;;;;;;;32.53;12.93;;;;;;;9.66;100.00;100268.91;5230649;28;20143;-82
2021/12/30 08:04:09;;;;;;;32.45;11.90;;;;;;;9.66;100.00;100253.25;5219595;28;20020;-81
2021/12/30 08:06:39;;;;;;;35.42;12.00;;;;;;;9.70;100.00;100254.84;5217951;28;20035;-81
2021/12/30 08:09:10;;;;;;;33.33;11.95;;;;;;;9.71;100.00;100259.16;5242787;28;20303;-82
2021/12/30 08:11:40;;;;;;;30.30;12.25;;;;;;;9.74;100.00;100253.81;5215817;28;20021;-82
2021/12/30 08:14:10;;;;;;;33.03;12.60;;;;;;;9.75;100.00;100263.34;5218955;28;20044;-82
2021/12/30 08:16:41;;;;;;;32.60;11.32;;;;;;;9.83;100.00;100258.69;5234342;28;20032;-82
2021/12/30 08:19:11;;;;;;;31.15;11.43;;;;;;;9.78;100.00;100260.59;5217879;28;20087;-81
2021/12/30 08:21:42;;;;;;;32.58;11.13;;;;;;;9.88;100.00;100259.38;5236318;28;20024;-82
2021/12/30 08:24:12;;;;;;;28.90;10.70;;;;;;;9.88;100.00;100260.22;5237591;28;20029;-81
2021/12/30 08:26:43;;;;;;;33.05;10.55;;;;;;;9.98;100.00;100263.34;5236520;28;20033;-81
2021/12/30 08:29:13;;;;;;;24.38;9.77;;;;;;;9.97;100.00;100259.88;5222846;28;20111;-82
2021/12/30 08:31:43;;;;;;;28.23;9.35;;;;;;;9.94;100.00;100264.34;5219284;28;20049;-81
2021/12/30 08:34:14;;;;;;;27.20;9.80;;;;;;;9.93;100.00;100275.69;5233750;28;20056;-82
2021/12/30 08:36:44;;;;;;;25.52;8.75;;;;;;;10.01;100.00;100265.81;5223414;28;20123;-81
2021/12/30 08:39:14;;;;;;;27.25;8.88;;;;;;;9.99;100.00;100262.44;5243173;28;20111;-82
2021/12/30 08:41:44;;;;;;;20.27;8.95;;;;;;;9.99;100.00;100257.22;5235081;28;20431;-80
2021/12/30 08:44:15;;;;;;;29.13;9.20;;;;;;;10.17;100.00;100256.53;5219863;28;20046;-81
2021/12/30 08:46:45;;;;;;;22.85;8.57;;;;;;;10.12;100.00;100263.66;5235594;28;20292;-82
2021/12/30 08:49:15;;;;;;;20.88;8.55;;;;;;;10.02;100.00;100254.50;5238461;28;20031;-80
2021/12/30 08:51:46;;;;;;;36.92;9.05;;;;;;;10.14;100.00;100260.09;5238917;28;20024;-80
2021/12/30 08:54:16;;;;;;;26.70;8.60;;;;;;;10.12;100.00;100261.94;5220180;28;20025;-79
2021/12/30 08:56:46;;;;;;;15.43;6.95;;;;;;;10.12;100.00;100264.53;5241137;28;20029;-79
2021/12/30 08:59:17;;;;;;;25.52;7.63;;;;;;;10.23;100.00;100257.16;5249067;28;20032;-79
2021/12/30 09:01:47;;;;;;;22.95;6.75;;;;;;;10.19;100.00;100259.94;5226650;28;20206;-79
2021/12/30 09:04:17;;;;;;;20.65;5.85;;;;;;;10.22;100.00;100265.03;5213707;28;20478;-79
2021/12/30 09:06:47;;;;;;;18.42;5.88;;;;;;;10.26;100.00;100275.31;5214960;28;20071;-79
2021/12/30 09:09:18;;;;;;;17.50;5.85;;;;;;;10.25;100.00;100272.75;5220035;28;20029;-80
2021/12/30 09:11:48;;;;;;;16.52;5.65;;;;;;;10.39;100.00;100279.16;5228534;28;20025;-80
2021/12/30 09:14:19;;;;;;;17.17;5.22;;;;;;;10.32;100.00;100282.06;5228804;28;20032;-80
2021/12/30 09:16:50;;;;;;;14.70;5.35;;;;;;;10.27;100.00;100289.19;5222458;28;20017;-80
2021/12/30 09:19:20;;;;;;;13.52;4.20;;;;;;;10.35;100.00;100287.16;5238019;28;20448;-80
2021/12/30 09:21:51;;;;;;;11.95;3.85;;;;;;;10.37;100.00;100286.16;5227621;28;20116;-82
2021/12/30 09:24:21;;;;;;;11.43;3.63;;;;;;;10.38;100.00;100287.03;5218444;28;20024;-82
2021/12/30 09:26:51;;;;;;;11.07;3.92;;;;;;;10.36;100.00;100294.06;5237917;28;20111;-82
2021/12/30 09:29:22;;;;;;;11.05;3.28;;;;;;;10.53;100.00;100292.47;5239079;28;20529;-82
2021/12/30 09:31:52;;;;;;;11.90;3.33;;;;;;;10.51;100.00;100291.69;5246435;28;20043;-81
2021/12/30 09:34:23;;;;;;;12.85;3.30;;;;;;;10.49;100.00;100295.31;5229537;28;20112;-80
2021/12/30 09:36:53;;;;;;;10.18;3.70;;;;;;;10.53;100.00;100296.88;5222630;28;20028;-81
2021/12/30 09:39:29;;;;;;;12.00;3.65;;;;;;;10.55;100.00;100287.22;5219133;28;20035;-79
2021/12/30 09:42:00;;;;;;;10.95;3.05;;;;;;;10.60;100.00;100286.13;5244136;28;20089;-81
2021/12/30 09:44:33;;;;;;;9.82;3.45;;;;;;;10.60;100.00;100282.63;5240977;28;20112;-80
2021/12/30 09:47:03;;;;;;;17.15;3.75;;;;;;;10.59;100.00;100279.19;5227096;28;20086;-79
2021/12/30 09:49:34;;;;;;;10.25;3.25;;;;;;;10.60;100.00;100282.63;5218217;28;20051;-79
2021/12/30 09:52:05;;;;;;;6.70;3.10;;;;;;;10.64;100.00;100290.28;5238261;28;20029;-80
2021/12/30 09:54:35;;;;;;;8.80;3.47;;;;;;;10.60;100.00;100291.34;5216055;28;20025;-78
2021/12/30 09:57:05;;;;;;;16.08;5.15;;;;;;;10.57;100.00;100288.00;5216285;28;20029;-78
2021/12/30 09:59:35;;;;;;;10.15;4.18;;;;;;;10.53;100.00;100296.88;5223196;28;20107;-79
2021/12/30 10:02:06;;;;;;;10.13;3.78;;;;;;;10.65;100.00;100286.78;5235081;28;20081;-78
2021/12/30 10:04:36;;;;;;;12.57;3.58;;;;;;;10.81;100.00;100271.31;5215807;28;20436;-78
2021/12/30 10:07:19;;;;;;;11.40;3.22;;;;;;;10.86;100.00;100269.38;5218315;28;20038;-79
2021/12/30 10:09:50;;;;;;;10.07;3.05;;;;;;;10.92;100.00;100269.97;5236716;28;20107;-79
2021/12/30 10:12:34;;;;;;;10.05;3.50;;;;;;;10.96;100.00;100278.50;5210135;28;20024;-79
2021/12/30 10:15:07;;;;;;;6.47;3.10;;;;;;;10.99;100.00;100267.94;5232875;28;20029;-79
2021/12/30 10:17:37;;;;;;;8.23;3.15;;;;;;;10.96;100.00;100265.44;5218042;28;20027;-80
2021/12/30 10:20:24;;;;;;;7.57;3.08;;;;;;;11.01;100.00;100279.19;5220405;28;20029;-80
2021/12/30 10:23:07;;;;;;;8.43;3.13;;;;;;;11.04;100.00;100280.75;5235511;28;20107;-79
2021/12/30 10:25:49;;;;;;;8.07;3.45;;;;;;;11.03;100.00;100281.69;5234616;28;20033;-79
2021/12/30 10:28:36;;;;;;;8.32;3.53;;;;;;;11.05;100.00;100277.22;5216309;28;20046;-80
2021/12/30 10:31:12;;;;;;;6.35;3.05;;;;;;;11.16;100.00;100279.38;5233816;28;20024;-80
2021/12/30 10:33:47;;;;;;;4.78;2.40;;;;;;;11.19;100.00;100274.88;5219267;28;20032;-79
2021/12/30 10:36:33;;;;;;;6.00;2.70;;;;;;;11.18;100.00;100275.78;5217336;28;20050;-80
2021/12/30 10:39:32;;;;;;;5.65;2.13;;;;;;;11.19;100.00;100279.25;5223430;28;20117;-79
2021/12/30 10:42:06;;;;;;;6.70;2.10;;;;;;;11.28;100.00;100277.09;5220630;28;20033;-80
2021/12/30 10:44:54;;;;;;;5.18;1.85;;;;;;;11.30;100.00;100271.78;5235772;28;20028;-80
2021/12/30 10:47:27;;;;;;;5.10;2.38;;;;;;;11.21;100.00;100262.59;5215776;28;20027;-79
2021/12/30 10:50:05;;;;;;;5.25;2.40;;;;;;;11.22;100.00;100263.41;5230338;28;20479;-80
2021/12/30 10:52:46;;;;;;;6.15;1.90;;;;;;;11.28;100.00;100273.63;5235356;28;20024;-80
2021/12/30 10:55:17;;;;;;;5.28;2.35;;;;;;;11.25;100.00;100272.00;5214746;28;20035;-79
2021/12/30 10:57:47;;;;;;;4.13;1.90;;;;;;;11.19;100.00;100267.03;5235635;28;20088;-79
2021/12/30 11:00:38;;;;;;;5.03;1.95;;;;;;;11.31;100.00;100266.47;5232122;28;20033;-80
2021/12/30 11:03:27;;;;;;;5.78;2.50;;;;;;;11.26;100.00;100265.84;5214012;28;20440;-79
2021/12/30 11:06:17;;;;;;;7.43;1.85;;;;;;;11.30;100.00;100259.56;5230103;28;20037;-79
2021/12/30 11:08:49;;;;;;;3.90;1.67;;;;;;;11.36;100.00;100258.44;5215809;28;20074;-79
2021/12/30 11:11:24;;;;;;;2.90;1.33;;;;;;;11.37;100.00;100261.00;5214770;28;20051;-79
2021/12/30 11:14:04;;;;;;;2.55;1.38;;;;;;;11.33;100.00;100255.97;5218721;28;20029;-78
2021/12/30 11:16:57;;;;;;;3.42;1.52;;;;;;;11.38;100.00;100252.22;5214397;28;20032;-78
2021/12/30 11:19:29;;;;;;;3.47;1.48;;;;;;;11.44;100.00;100249.34;5230351;28;20024;-80
2021/12/30 11:22:00;;;;;;;8.07;1.55;;;;;;;11.44;100.00;100258.97;5240324;28;20056;-79
2021/12/30 11:24:32;;;;;;;5.68;2.45;;;;;;;11.41;100.00;100264.34;5234468;28;20032;-79
2021/12/30 11:27:06;;;;;;;4.28;2.05;;;;;;;11.38;100.00;100252.22;5234929;28;20040;-79
2021/12/30 11:29:39;;;;;;;3.10;1.40;;;;;;;11.50;100.00;100261.31;5214440;28;20029;-79
2021/12/30 11:32:11;;;;;;;4.20;1.50;;;;;;;11.43;100.00;100252.88;5214278;28;20024;-79
2021/12/30 11:34:41;;;;;;;4.70;1.90;;;;;;;11.46;100.00;100254.50;5235757;28;20089;-79
2021/12/30 11:37:14;;;;;;;3.80;1.65;;;;;;;11.38;100.00;100254.00;5237238;28;20037;-78